createdAt,value
2023-04-23T00:00:19.709Z,21.75
2023-04-23T00:01:19.733Z,21.71
2023-04-23T00:02:19.952Z,21.71
2023-04-23T00:03:20.252Z,21.73
2023-04-23T00:04:19.950Z,21.75
2023-04-23T00:05:19.911Z,21.68
2023-04-23T00:06:19.975Z,21.74
2023-04-23T00:08:19.949Z,21.74
2023-04-23T00:09:20.023Z,21.75
2023-04-23T00:10:20.285Z,21.75
2023-04-23T00:11:20.114Z,21.70
2023-04-23T00:12:20.032Z,21.71
2023-04-23T00:13:20.059Z,21.70
2023-04-23T00:14:20.092Z,21.67
2023-04-23T00:15:20.119Z,21.66
2023-04-23T00:16:20.180Z,21.73
2023-04-23T00:17:20.490Z,21.71
2023-04-23T00:18:20.502Z,21.67
2023-04-23T00:19:20.250Z,21.75
2023-04-23T00:21:20.313Z,21.75
2023-04-23T00:22:20.316Z,21.70
2023-04-23T00:23:20.638Z,21.73
2023-04-23T00:24:20.371Z,21.70
2023-04-23T00:25:20.401Z,21.75
2023-04-23T00:26:20.433Z,21.70
2023-04-23T00:27:20.450Z,21.67
2023-04-23T00:28:22.270Z,21.75
2023-04-23T00:29:20.824Z,21.68
2023-04-23T00:30:20.557Z,21.68
2023-04-23T00:31:20.602Z,21.70
2023-04-23T00:32:20.626Z,21.68
2023-04-23T00:33:20.629Z,21.68
2023-04-23T00:34:20.645Z,21.68
2023-04-23T00:36:21.037Z,21.70
2023-04-23T00:39:20.787Z,21.68
2023-04-23T00:40:20.824Z,21.68
2023-04-23T00:41:20.851Z,21.73
2023-04-23T00:42:21.168Z,21.70
2023-04-23T00:43:20.954Z,21.74
2023-04-23T00:44:20.935Z,21.68
2023-04-23T00:45:20.948Z,21.71
2023-04-23T00:46:21.016Z,21.68
2023-04-23T00:47:21.015Z,21.73
2023-04-23T00:50:21.420Z,21.68
2023-04-23T00:51:21.118Z,21.68
2023-04-23T00:52:21.165Z,21.70
2023-04-23T00:53:21.168Z,21.68
2023-04-23T00:55:21.391Z,21.73
2023-04-23T00:56:21.251Z,21.68
2023-04-23T00:57:21.585Z,21.71
2023-04-23T00:58:21.316Z,21.68
2023-04-23T00:59:21.337Z,21.68
2023-04-23T01:00:21.364Z,21.64
2023-04-23T01:01:21.427Z,21.68
2023-04-23T01:02:21.499Z,21.71
2023-04-23T01:03:21.724Z,21.70
2023-04-23T01:04:21.976Z,21.73
2023-04-23T01:05:21.514Z,21.68
2023-04-23T01:07:21.561Z,21.67
2023-04-23T01:08:21.640Z,21.68
2023-04-23T01:09:21.614Z,21.63
2023-04-23T01:10:21.652Z,21.66
2023-04-23T01:11:21.983Z,21.68
2023-04-23T01:12:21.705Z,21.64
2023-04-23T01:13:21.731Z,21.66
2023-04-23T01:14:21.751Z,21.66
2023-04-23T01:15:21.799Z,21.70
2023-04-23T01:16:21.834Z,21.66
2023-04-23T01:17:22.165Z,21.74
2023-04-23T01:18:22.121Z,21.66
2023-04-23T01:19:21.903Z,21.66
2023-04-23T01:20:21.924Z,21.63
2023-04-23T01:21:21.960Z,21.70
2023-04-23T01:22:21.986Z,21.70
2023-04-23T01:23:22.018Z,21.66
2023-04-23T01:26:22.406Z,21.67
2023-04-23T01:27:22.115Z,21.63
2023-04-23T01:28:22.146Z,21.66
2023-04-23T01:29:22.186Z,21.70
2023-04-23T01:30:22.222Z,21.66
2023-04-23T01:31:22.274Z,21.64
2023-04-23T01:32:22.274Z,21.64
2023-04-23T01:33:22.581Z,21.71
2023-04-23T01:34:22.310Z,21.71
2023-04-23T01:35:22.343Z,21.66
2023-04-23T01:37:22.397Z,21.64
2023-04-23T01:38:22.418Z,21.63
2023-04-23T01:39:22.455Z,21.64
2023-04-23T01:40:22.793Z,21.68
2023-04-23T01:41:22.510Z,21.70
2023-04-23T01:42:22.600Z,21.68
2023-04-23T01:43:22.595Z,21.68
2023-04-23T01:44:22.612Z,21.68
2023-04-23T01:45:22.616Z,21.68
2023-04-23T01:46:22.754Z,21.58
2023-04-23T01:47:23.026Z,21.64
2023-04-23T01:48:22.695Z,21.64
2023-04-23T01:49:22.732Z,21.59
2023-04-23T01:50:22.764Z,21.67
2023-04-23T01:52:22.807Z,21.61
2023-04-23T01:53:22.832Z,21.64
2023-04-23T01:54:23.160Z,21.67
2023-04-23T01:56:22.921Z,21.59
2023-04-23T01:57:22.952Z,21.61
2023-04-23T01:58:22.991Z,21.56
2023-04-23T01:59:23.018Z,21.67
2023-04-23T02:00:23.024Z,21.56
2023-04-23T02:01:23.452Z,21.66
2023-04-23T02:02:23.173Z,21.67
2023-04-23T02:03:23.237Z,21.66
2023-04-23T02:04:23.191Z,21.61
2023-04-23T02:05:23.169Z,21.64
2023-04-23T02:06:23.288Z,21.56
2023-04-23T02:07:23.228Z,21.55
2023-04-23T02:08:23.552Z,21.59
2023-04-23T02:09:23.278Z,21.59
2023-04-23T02:10:23.308Z,21.63
2023-04-23T02:11:23.329Z,21.63
2023-04-23T02:12:23.392Z,21.56
2023-04-23T02:13:23.413Z,21.63
2023-04-23T02:14:23.560Z,21.63
2023-04-23T02:15:23.746Z,21.61
2023-04-23T02:16:23.535Z,21.56
2023-04-23T02:17:23.531Z,21.58
2023-04-23T02:18:23.531Z,21.61
2023-04-23T02:19:23.554Z,21.56
2023-04-23T02:20:23.579Z,21.55
2023-04-23T02:21:23.613Z,21.58
2023-04-23T02:22:23.942Z,21.55
2023-04-23T02:23:23.666Z,21.55
2023-04-23T02:24:23.692Z,21.56
2023-04-23T02:25:23.733Z,21.51
2023-04-23T02:26:23.756Z,21.53
2023-04-23T02:27:23.778Z,21.59
2023-04-23T02:28:24.104Z,21.58
2023-04-23T02:29:24.134Z,21.53
2023-04-23T02:30:23.878Z,21.59
2023-04-23T02:31:23.919Z,21.53
2023-04-23T02:32:23.977Z,21.59
2023-04-23T02:35:24.311Z,21.53
2023-04-23T02:36:24.026Z,21.55
2023-04-23T02:37:24.063Z,21.53
2023-04-23T02:38:24.084Z,21.56
2023-04-23T02:39:24.115Z,21.58
2023-04-23T02:40:24.138Z,21.56
2023-04-23T02:41:24.170Z,21.55
2023-04-23T02:42:24.491Z,21.56
2023-04-23T02:43:24.231Z,21.51
2023-04-23T02:44:24.295Z,21.52
2023-04-23T02:45:24.286Z,21.45
2023-04-23T02:46:24.354Z,21.59
2023-04-23T02:47:24.442Z,21.48
2023-04-23T02:48:24.663Z,21.48
2023-04-23T02:49:24.384Z,21.46
2023-04-23T02:50:24.408Z,21.52
2023-04-23T02:51:24.444Z,21.45
2023-04-23T02:52:24.469Z,21.51
2023-04-23T02:53:24.503Z,21.45
2023-04-23T02:54:24.829Z,21.46
2023-04-23T02:55:24.550Z,21.56
2023-04-23T02:56:24.582Z,21.46
2023-04-23T02:57:24.618Z,21.46
2023-04-23T02:58:24.646Z,21.46
2023-04-23T02:59:24.665Z,21.46
2023-04-23T03:01:25.132Z,21.46
2023-04-23T03:02:25.024Z,21.43
2023-04-23T03:03:24.823Z,21.46
2023-04-23T03:04:24.802Z,21.45
2023-04-23T03:05:24.927Z,21.46
2023-04-23T03:06:24.869Z,21.48
2023-04-23T03:07:25.282Z,21.43
2023-04-23T03:08:24.906Z,21.46
2023-04-23T03:09:24.945Z,21.43
2023-04-23T03:10:24.962Z,21.48
2023-04-23T03:11:24.990Z,21.43
2023-04-23T03:12:25.031Z,21.45
2023-04-23T03:13:25.045Z,21.43
2023-04-23T03:14:25.456Z,21.49
2023-04-23T03:15:25.221Z,21.43
2023-04-23T03:16:25.170Z,21.49
2023-04-23T03:17:25.170Z,21.45
2023-04-23T03:18:25.198Z,21.46
2023-04-23T03:19:25.211Z,21.48
2023-04-23T03:20:25.243Z,21.46
2023-04-23T03:21:25.566Z,21.46
2023-04-23T03:22:25.295Z,21.46
2023-04-23T03:23:25.319Z,21.45
2023-04-23T03:25:25.386Z,21.42
2023-04-23T03:26:25.399Z,21.42
2023-04-23T03:28:25.909Z,21.43
2023-04-23T03:29:25.484Z,21.46
2023-04-23T03:30:25.512Z,21.45
2023-04-23T03:31:25.539Z,21.51
2023-04-23T03:32:25.602Z,21.46
2023-04-23T03:33:25.596Z,21.42
2023-04-23T03:34:25.691Z,21.45
2023-04-23T03:35:25.955Z,21.46
2023-04-23T03:36:25.677Z,21.45
2023-04-23T03:37:25.709Z,21.46
2023-04-23T03:38:25.731Z,21.40
2023-04-23T03:39:25.865Z,21.43
2023-04-23T03:40:25.790Z,21.40
2023-04-23T03:41:25.816Z,21.43
2023-04-23T03:42:26.144Z,21.48
2023-04-23T03:43:25.877Z,21.43
2023-04-23T03:44:25.898Z,21.38
2023-04-23T03:45:25.924Z,21.38
2023-04-23T03:46:25.977Z,21.42
2023-04-23T03:47:26.102Z,21.37
2023-04-23T03:48:26.013Z,21.34
2023-04-23T03:50:26.405Z,21.42
2023-04-23T03:51:26.098Z,21.38
2023-04-23T03:52:26.126Z,21.43
2023-04-23T03:55:26.205Z,21.38
2023-04-23T03:56:27.238Z,21.36
2023-04-23T03:57:26.563Z,21.48
2023-04-23T03:59:26.319Z,21.42
2023-04-23T04:00:26.347Z,21.40
2023-04-23T04:01:26.379Z,21.43
2023-04-23T04:02:26.515Z,21.46
2023-04-23T04:03:26.560Z,21.37
2023-04-23T04:04:27.103Z,21.40
2023-04-23T04:05:26.496Z,21.42
2023-04-23T04:06:26.533Z,21.40
2023-04-23T04:07:26.562Z,21.43
2023-04-23T04:08:26.567Z,21.38
2023-04-23T04:09:26.590Z,21.42
2023-04-23T04:10:26.626Z,21.42
2023-04-23T04:11:26.981Z,21.36
2023-04-23T04:12:26.682Z,21.37
2023-04-23T04:13:26.707Z,21.38
2023-04-23T04:14:26.733Z,21.38
2023-04-23T04:15:26.856Z,21.42
2023-04-23T04:16:26.828Z,21.37
2023-04-23T04:17:26.841Z,21.40
2023-04-23T04:18:27.446Z,21.48
2023-04-23T04:19:26.893Z,21.42
2023-04-23T04:20:26.896Z,21.43
2023-04-23T04:21:26.924Z,21.38
2023-04-23T04:22:26.982Z,21.37
2023-04-23T04:23:26.982Z,21.34
2023-04-23T04:24:27.010Z,21.51
2023-04-23T04:25:27.343Z,21.46
2023-04-23T04:26:27.072Z,21.45
2023-04-23T04:27:27.092Z,21.37
2023-04-23T04:28:27.116Z,21.48
2023-04-23T04:29:27.141Z,21.43
2023-04-23T04:30:27.168Z,21.48
2023-04-23T04:31:27.213Z,21.48
2023-04-23T04:32:27.549Z,21.46
2023-04-23T04:33:27.257Z,21.46
2023-04-23T04:34:27.283Z,21.46
2023-04-23T04:35:27.307Z,21.48
2023-04-23T04:36:27.378Z,21.43
2023-04-23T04:37:27.362Z,21.43
2023-04-23T04:38:27.418Z,21.48
2023-04-23T04:39:27.736Z,21.48
2023-04-23T04:40:27.452Z,21.43
2023-04-23T04:41:27.473Z,21.43
2023-04-23T04:42:27.596Z,21.42
2023-04-23T04:43:27.522Z,21.45
2023-04-23T04:44:27.559Z,21.49
2023-04-23T04:45:27.583Z,21.52
2023-04-23T04:46:27.919Z,21.42
2023-04-23T04:47:27.677Z,21.48
2023-04-23T04:48:27.665Z,21.46
2023-04-23T04:49:27.695Z,21.49
2023-04-23T04:50:27.734Z,21.46
2023-04-23T04:51:27.744Z,21.43
2023-04-23T04:52:27.776Z,21.49
2023-04-23T04:53:28.119Z,21.48
2023-04-23T04:54:27.980Z,21.48
2023-04-23T04:55:27.856Z,21.46
2023-04-23T04:56:27.916Z,21.45
2023-04-23T04:57:27.909Z,21.48
2023-04-23T04:58:27.933Z,21.43
2023-04-23T04:59:27.965Z,21.46
2023-04-23T05:00:28.303Z,21.49
2023-04-23T05:01:28.065Z,21.46
2023-04-23T05:02:28.091Z,21.46
2023-04-23T05:03:28.231Z,21.48
2023-04-23T05:04:28.131Z,21.46
2023-04-23T05:05:28.157Z,21.45
2023-04-23T05:06:28.157Z,21.49
2023-04-23T05:08:28.512Z,21.45
2023-04-23T05:09:28.338Z,21.58
2023-04-23T05:10:28.286Z,21.45
2023-04-23T05:11:28.291Z,21.45
2023-04-23T05:12:28.325Z,21.51
2023-04-23T05:13:28.351Z,21.56
2023-04-23T05:14:28.376Z,21.52
2023-04-23T05:15:28.707Z,21.53
2023-04-23T05:16:28.550Z,21.53
2023-04-23T05:17:28.506Z,21.55
2023-04-23T05:18:28.487Z,21.55
2023-04-23T05:19:28.528Z,21.55
2023-04-23T05:20:28.545Z,21.53
2023-04-23T05:22:28.891Z,21.56
2023-04-23T05:23:28.623Z,21.53
2023-04-23T05:24:28.656Z,21.61
2023-04-23T05:25:28.680Z,21.56
2023-04-23T05:26:28.743Z,21.56
2023-04-23T05:27:28.734Z,21.58
2023-04-23T05:28:28.776Z,21.58
2023-04-23T05:29:29.101Z,21.59
2023-04-23T05:30:28.821Z,21.59
2023-04-23T05:31:29.539Z,21.61
2023-04-23T05:32:28.964Z,21.58
2023-04-23T05:33:33.345Z,21.56
2023-04-23T05:34:28.924Z,21.66
2023-04-23T05:35:28.960Z,21.63
2023-04-23T05:36:29.278Z,21.68
2023-04-23T05:38:29.035Z,21.70
2023-04-23T05:39:29.067Z,21.71
2023-04-23T05:40:29.091Z,21.68
2023-04-23T05:41:29.123Z,21.70
2023-04-23T05:42:29.482Z,21.64
2023-04-23T05:43:29.171Z,21.68
2023-04-23T05:44:29.194Z,21.66
2023-04-23T05:45:29.307Z,21.68
2023-04-23T05:46:29.371Z,21.70
2023-04-23T05:47:29.336Z,21.66
2023-04-23T05:48:29.610Z,21.68
2023-04-23T05:49:29.435Z,21.68
2023-04-23T05:50:29.358Z,21.73
2023-04-23T05:51:29.436Z,21.71
2023-04-23T05:52:29.543Z,21.68
2023-04-23T05:53:29.538Z,21.70
2023-04-23T05:54:29.793Z,21.74
2023-04-23T05:55:29.614Z,21.74
2023-04-23T05:56:29.541Z,21.71
2023-04-23T05:57:29.568Z,21.74
2023-04-23T05:58:29.617Z,21.71
2023-04-23T05:59:29.753Z,21.79
2023-04-23T06:00:29.688Z,21.81
2023-04-23T06:01:29.984Z,21.81
2023-04-23T06:02:29.849Z,21.71
2023-04-23T06:03:29.894Z,21.79
2023-04-23T06:04:29.942Z,21.83
2023-04-23T06:05:29.961Z,21.79
2023-04-23T06:06:29.921Z,21.85
2023-04-23T06:07:29.834Z,21.82
2023-04-23T06:08:30.170Z,21.77
2023-04-23T06:09:29.938Z,21.83
2023-04-23T06:10:29.951Z,21.83
2023-04-23T06:11:29.959Z,21.91
2023-04-23T06:12:29.974Z,21.83
2023-04-23T06:13:29.996Z,21.83
2023-04-23T06:14:30.152Z,21.90
2023-04-23T06:15:30.400Z,21.86
2023-04-23T06:16:30.152Z,21.91
2023-04-23T06:17:30.137Z,21.93
2023-04-23T06:19:30.174Z,21.86
2023-04-23T06:20:30.199Z,21.93
2023-04-23T06:21:30.217Z,21.93
2023-04-23T06:22:30.564Z,21.93
2023-04-23T06:23:30.374Z,21.96
2023-04-23T06:24:30.332Z,21.96
2023-04-23T06:25:30.358Z,21.93
2023-04-23T06:26:32.214Z,21.93
2023-04-23T06:27:30.387Z,21.93
2023-04-23T06:28:30.418Z,21.83
2023-04-23T06:29:30.763Z,21.91
2023-04-23T06:30:30.499Z,21.96
2023-04-23T06:31:30.532Z,21.96
2023-04-23T06:32:30.546Z,21.91
2023-04-23T06:33:30.562Z,21.91
2023-04-23T06:34:30.576Z,21.93
2023-04-23T06:35:30.601Z,21.93
2023-04-23T06:36:30.938Z,21.94
2023-04-23T06:37:30.674Z,21.96
2023-04-23T06:38:30.685Z,21.96
2023-04-23T06:40:30.746Z,21.98
2023-04-23T06:41:30.788Z,22.01
2023-04-23T06:42:30.818Z,22.08
2023-04-23T06:43:31.129Z,22.01
2023-04-23T06:44:30.855Z,22.01
2023-04-23T06:45:30.951Z,22.09
2023-04-23T06:46:31.079Z,22.04
2023-04-23T06:47:30.936Z,22.02
2023-04-23T06:48:30.964Z,22.06
2023-04-23T06:50:31.329Z,22.04
2023-04-23T06:51:31.233Z,22.02
2023-04-23T06:53:31.101Z,22.04
2023-04-23T06:54:31.139Z,22.08
2023-04-23T06:55:31.176Z,22.06
2023-04-23T06:56:31.190Z,22.09
2023-04-23T06:57:31.540Z,22.09
2023-04-23T06:58:31.284Z,22.12
2023-04-23T06:59:31.274Z,22.12
2023-04-23T07:00:31.297Z,22.15
2023-04-23T07:01:31.327Z,22.20
2023-04-23T07:05:31.776Z,22.19
2023-04-23T07:06:31.475Z,22.26
2023-04-23T07:07:31.616Z,22.27
2023-04-23T07:09:31.591Z,22.27
2023-04-23T07:10:31.594Z,22.29
2023-04-23T07:11:31.624Z,22.30
2023-04-23T07:12:31.903Z,22.31
2023-04-23T07:13:31.685Z,22.24
2023-04-23T07:15:31.837Z,22.27
2023-04-23T07:16:31.773Z,22.30
2023-04-23T07:17:31.819Z,22.29
2023-04-23T07:19:32.158Z,22.29
2023-04-23T07:20:31.888Z,22.38
2023-04-23T07:21:31.933Z,22.30
2023-04-23T07:22:31.936Z,22.42
2023-04-23T07:23:31.975Z,22.44
2023-04-23T07:24:32.000Z,22.38
2023-04-23T07:25:32.034Z,22.44
2023-04-23T07:26:32.352Z,22.42
2023-04-23T07:27:32.082Z,22.36
2023-04-23T07:28:32.154Z,22.39
2023-04-23T07:29:32.143Z,22.38
2023-04-23T07:30:32.169Z,22.38
2023-04-23T07:31:32.284Z,22.45
2023-04-23T07:32:32.250Z,22.45
2023-04-23T07:33:32.549Z,22.48
2023-04-23T07:34:32.290Z,22.45
2023-04-23T07:35:32.314Z,22.49
2023-04-23T07:36:32.362Z,22.51
2023-04-23T07:37:32.433Z,22.45
2023-04-23T07:38:32.398Z,22.48
2023-04-23T07:39:32.420Z,22.41
2023-04-23T07:40:32.785Z,22.39
2023-04-23T07:41:32.483Z,22.42
2023-04-23T07:42:32.503Z,22.46
2023-04-23T07:43:32.548Z,22.51
2023-04-23T07:44:32.568Z,22.48
2023-04-23T07:45:32.604Z,22.49
2023-04-23T07:46:32.649Z,22.41
2023-04-23T07:47:32.970Z,22.41
2023-04-23T07:48:32.681Z,22.51
2023-04-23T07:49:32.720Z,22.46
2023-04-23T07:50:32.746Z,22.51
2023-04-23T07:51:32.762Z,22.42
2023-04-23T07:52:32.789Z,22.39
2023-04-23T07:53:32.846Z,22.45
2023-04-23T07:54:33.111Z,22.48
2023-04-23T07:55:32.878Z,22.51
2023-04-23T07:56:32.913Z,22.46
2023-04-23T07:57:32.951Z,22.42
2023-04-23T07:58:32.998Z,22.49
2023-04-23T07:59:33.001Z,22.49
2023-04-23T08:00:33.325Z,22.52
2023-04-23T08:01:33.056Z,22.51
2023-04-23T08:02:33.152Z,22.51
2023-04-23T08:03:33.230Z,22.48
2023-04-23T08:04:33.275Z,22.49
2023-04-23T08:05:33.218Z,22.59
2023-04-23T08:06:33.497Z,22.61
2023-04-23T08:07:33.233Z,22.51
2023-04-23T08:08:33.353Z,22.57
2023-04-23T08:09:33.300Z,22.66
2023-04-23T08:10:33.322Z,22.60
2023-04-23T08:11:33.333Z,22.66
2023-04-23T08:12:33.662Z,22.69
2023-04-23T08:13:33.392Z,22.70
2023-04-23T08:14:33.427Z,22.63
2023-04-23T08:15:33.450Z,22.70
2023-04-23T08:16:34.293Z,22.67
2023-04-23T08:17:33.516Z,22.63
2023-04-23T08:18:33.534Z,22.67
2023-04-23T08:19:33.964Z,22.63
2023-04-23T08:20:33.588Z,22.76
2023-04-23T08:21:33.669Z,22.72
2023-04-23T08:22:33.644Z,22.59
2023-04-23T08:23:33.669Z,22.72
2023-04-23T08:24:33.698Z,22.72
2023-04-23T08:25:33.760Z,22.72
2023-04-23T08:26:34.064Z,22.75
2023-04-23T08:27:33.790Z,22.76
2023-04-23T08:28:33.868Z,22.75
2023-04-23T08:29:33.841Z,22.79
2023-04-23T08:30:33.874Z,22.86
2023-04-23T08:31:33.965Z,22.84
2023-04-23T08:32:33.979Z,22.85
2023-04-23T08:33:34.212Z,22.85
2023-04-23T08:35:34.027Z,22.85
2023-04-23T08:36:34.043Z,23.00
2023-04-23T08:38:34.101Z,22.96
2023-04-23T08:39:34.140Z,23.01
2023-04-23T08:40:34.456Z,22.96
2023-04-23T08:41:34.211Z,23.04
2023-04-23T08:42:34.222Z,22.96
2023-04-23T08:43:34.249Z,22.99
2023-04-23T08:44:34.279Z,23.00
2023-04-23T08:45:34.300Z,23.04
2023-04-23T08:46:34.383Z,23.01
2023-04-23T08:48:34.692Z,23.03
2023-04-23T08:49:34.418Z,23.09
2023-04-23T08:50:34.480Z,23.15
2023-04-23T08:51:34.482Z,23.07
2023-04-23T08:53:34.539Z,23.18
2023-04-23T08:54:34.570Z,23.19
2023-04-23T08:55:34.895Z,23.18
2023-04-23T08:56:34.637Z,23.18
2023-04-23T08:57:34.679Z,23.18
2023-04-23T08:58:34.683Z,23.14
2023-04-23T08:59:34.711Z,23.18
2023-04-23T09:00:34.774Z,23.23
2023-04-23T09:01:34.786Z,23.16
2023-04-23T09:02:35.211Z,23.15
2023-04-23T09:03:34.949Z,23.18
2023-04-23T09:04:34.854Z,23.19
2023-04-23T09:05:34.904Z,23.18
2023-04-23T09:06:34.907Z,23.16
2023-04-23T09:07:34.948Z,23.14
2023-04-23T09:08:34.981Z,23.15
2023-04-23T09:09:35.304Z,23.16
2023-04-23T09:10:35.029Z,23.26
2023-04-23T09:11:35.093Z,23.31
2023-04-23T09:12:35.091Z,23.31
2023-04-23T09:13:35.151Z,23.23
2023-04-23T09:14:36.805Z,23.31
2023-04-23T09:15:35.858Z,23.38
2023-04-23T09:16:36.337Z,23.35
2023-04-23T09:17:35.669Z,23.32
2023-04-23T09:18:35.825Z,23.34
2023-04-23T09:19:35.292Z,23.35
2023-04-23T09:20:35.337Z,23.25
2023-04-23T09:21:35.357Z,23.41
2023-04-23T09:22:35.393Z,23.44
2023-04-23T09:23:35.711Z,23.45
2023-04-23T09:24:35.464Z,23.49
2023-04-23T09:25:35.479Z,23.53
2023-04-23T09:26:35.510Z,23.53
2023-04-23T09:27:35.534Z,23.52
2023-04-23T09:29:35.911Z,23.67
2023-04-23T09:30:35.625Z,23.67
2023-04-23T09:31:35.676Z,23.63
2023-04-23T09:32:35.722Z,23.59
2023-04-23T09:33:35.713Z,23.64
2023-04-23T09:34:35.743Z,23.67
2023-04-23T09:35:35.760Z,23.74
2023-04-23T09:36:36.093Z,23.68
2023-04-23T09:37:35.822Z,23.79
2023-04-23T09:38:35.855Z,23.74
2023-04-23T09:39:35.930Z,23.81
2023-04-23T09:40:35.919Z,23.75
2023-04-23T09:41:35.940Z,23.74
2023-04-23T09:42:35.980Z,23.75
2023-04-23T09:43:36.297Z,23.74
2023-04-23T09:45:36.094Z,23.81
2023-04-23T09:46:36.093Z,23.75
2023-04-23T09:47:36.149Z,23.75
2023-04-23T09:48:36.149Z,23.67
2023-04-23T09:49:36.183Z,23.68
2023-04-23T09:50:36.530Z,23.71
2023-04-23T09:51:36.234Z,23.69
2023-04-23T09:52:36.266Z,23.68
2023-04-23T09:53:36.761Z,23.69
2023-04-23T09:54:36.329Z,23.69
2023-04-23T09:55:36.353Z,23.69
2023-04-23T09:56:36.694Z,23.77
2023-04-23T09:57:36.411Z,23.75
2023-04-23T09:58:36.449Z,23.79
2023-04-23T09:59:47.038Z,23.77
2023-04-23T10:00:36.504Z,23.87
2023-04-23T10:01:36.566Z,23.84
2023-04-23T10:02:36.970Z,23.90
2023-04-23T10:03:37.948Z,23.84
2023-04-23T10:04:36.782Z,23.84
2023-04-23T10:05:49.830Z,23.94
2023-04-23T10:06:42.392Z,23.94
2023-04-23T10:07:36.715Z,23.99
2023-04-23T10:08:37.048Z,23.96
2023-04-23T10:09:36.881Z,24.08
2023-04-23T10:10:47.060Z,24.09
2023-04-23T10:11:36.830Z,24.14
2023-04-23T10:12:50.223Z,24.18
2023-04-23T10:13:36.898Z,24.18
2023-04-23T10:14:36.919Z,24.11
2023-04-23T10:15:37.249Z,24.14
2023-04-23T10:16:48.284Z,24.21
2023-04-23T10:17:37.098Z,24.24
2023-04-23T10:18:37.030Z,24.21
2023-04-23T10:19:38.242Z,24.19
2023-04-23T10:20:37.096Z,24.30
2023-04-23T10:22:37.457Z,24.27
2023-04-23T10:23:37.181Z,24.29
2023-04-23T10:24:37.219Z,24.30
2023-04-23T10:26:37.362Z,24.37
2023-04-23T10:27:51.118Z,24.33
2023-04-23T10:28:37.340Z,24.33
2023-04-23T10:29:37.671Z,24.36
2023-04-23T10:30:37.399Z,24.41
2023-04-23T10:31:37.530Z,24.37
2023-04-23T10:32:37.498Z,24.34
2023-04-23T10:34:37.604Z,24.46
2023-04-23T10:36:37.824Z,24.37
2023-04-23T10:37:37.659Z,24.46
2023-04-23T10:38:42.965Z,24.39
2023-04-23T10:39:37.663Z,24.37
2023-04-23T10:41:37.773Z,24.37
2023-04-23T10:42:37.770Z,24.39
2023-04-23T10:43:38.102Z,24.34
2023-04-23T10:44:55.955Z,24.33
2023-04-23T10:45:37.951Z,24.36
2023-04-23T10:46:39.182Z,24.36
2023-04-23T10:47:37.965Z,24.24
2023-04-23T10:48:37.971Z,24.33
2023-04-23T10:49:37.988Z,24.21
2023-04-23T10:50:47.746Z,24.21
2023-04-23T10:52:38.068Z,24.18
2023-04-23T10:53:38.091Z,24.26
2023-04-23T10:54:38.178Z,24.26
2023-04-23T10:55:38.157Z,24.12
2023-04-23T10:56:38.184Z,24.18
2023-04-23T10:57:38.210Z,24.16
2023-04-23T10:58:38.248Z,24.19
2023-04-23T11:00:38.313Z,24.18
2023-04-23T11:01:38.375Z,24.31
2023-04-23T11:02:38.514Z,24.26
2023-04-23T11:03:41.992Z,24.36
2023-04-23T11:04:38.468Z,24.33
2023-04-23T11:05:38.479Z,24.34
2023-04-23T11:06:38.495Z,24.33
2023-04-23T11:07:38.519Z,24.36
2023-04-23T11:08:38.580Z,24.39
2023-04-23T11:09:38.786Z,24.42
2023-04-23T11:10:38.606Z,24.41
2023-04-23T11:11:38.633Z,24.34
2023-04-23T11:12:38.711Z,24.44
2023-04-23T11:13:38.699Z,24.44
2023-04-23T11:14:38.720Z,24.34
2023-04-23T11:15:38.767Z,24.33
2023-04-23T11:16:38.824Z,24.37
2023-04-23T11:17:38.875Z,24.31
2023-04-23T11:18:38.860Z,24.31
2023-04-23T11:19:38.963Z,24.33
2023-04-23T11:21:38.965Z,24.26
2023-04-23T11:22:39.009Z,24.30
2023-04-23T11:24:39.029Z,24.19
2023-04-23T11:25:39.061Z,24.19
2023-04-23T11:26:39.096Z,24.12
2023-04-23T11:27:39.117Z,24.21
2023-04-23T11:28:39.399Z,24.15
2023-04-23T11:29:39.258Z,24.23
2023-04-23T11:30:39.265Z,24.19
2023-04-23T11:31:44.837Z,24.19
2023-04-23T11:32:39.384Z,24.24
2023-04-23T11:33:39.310Z,24.19
2023-04-23T11:34:39.330Z,24.24
2023-04-23T11:35:39.678Z,24.34
2023-04-23T11:36:39.440Z,24.33
2023-04-23T11:37:39.446Z,24.37
2023-04-23T11:38:39.465Z,24.34
2023-04-23T11:39:39.666Z,24.34
2023-04-23T11:40:39.511Z,24.34
2023-04-23T11:41:39.550Z,24.46
2023-04-23T11:42:39.573Z,24.48
2023-04-23T11:43:39.601Z,24.49
2023-04-23T11:44:39.641Z,24.49
2023-04-23T11:45:39.717Z,24.53
2023-04-23T11:46:39.702Z,24.44
2023-04-23T11:47:39.732Z,24.44
2023-04-23T11:49:40.454Z,24.56
2023-04-23T11:50:39.822Z,24.49
2023-04-23T11:51:39.861Z,24.56
2023-04-23T11:52:39.892Z,24.49
2023-04-23T11:53:39.935Z,24.53
2023-04-23T11:54:39.952Z,24.63
2023-04-23T11:55:39.971Z,24.61
2023-04-23T11:56:40.006Z,24.63
2023-04-23T11:57:40.044Z,24.71
2023-04-23T11:58:40.063Z,24.60
2023-04-23T11:59:40.320Z,24.60
2023-04-23T12:00:40.123Z,24.79
2023-04-23T12:01:40.163Z,24.71
2023-04-23T12:02:40.652Z,24.74
2023-04-23T12:03:40.371Z,24.77
2023-04-23T12:04:41.333Z,24.71
2023-04-23T12:06:40.302Z,24.83
2023-04-23T12:07:40.335Z,24.74
2023-04-23T12:08:40.398Z,24.80
2023-04-23T12:09:40.685Z,24.80
2023-04-23T12:10:40.424Z,24.86
2023-04-23T12:11:40.455Z,24.79
2023-04-23T12:12:40.488Z,24.86
2023-04-23T12:13:40.516Z,24.79
2023-04-23T12:14:40.602Z,24.84
2023-04-23T12:15:40.918Z,24.71
2023-04-23T12:16:40.611Z,24.70
2023-04-23T12:17:40.672Z,24.75
2023-04-23T12:18:40.670Z,24.75
2023-04-23T12:19:40.990Z,24.74
2023-04-23T12:20:40.729Z,24.60
2023-04-23T12:21:41.062Z,24.63
2023-04-23T12:22:40.794Z,24.63
2023-04-23T12:23:40.932Z,24.60
2023-04-23T12:24:40.848Z,24.56
2023-04-23T12:25:40.905Z,24.59
2023-04-23T12:26:40.936Z,24.48
2023-04-23T12:27:41.000Z,24.46
2023-04-23T12:28:40.972Z,24.46
2023-04-23T12:29:41.178Z,24.48
2023-04-23T12:30:41.055Z,24.49
2023-04-23T12:31:41.137Z,24.42
2023-04-23T12:32:41.149Z,24.49
2023-04-23T12:33:41.377Z,24.34
2023-04-23T12:34:41.499Z,24.45
2023-04-23T12:35:41.197Z,24.37
2023-04-23T12:36:41.218Z,24.42
2023-04-23T12:37:41.254Z,24.44
2023-04-23T12:38:41.283Z,24.34
2023-04-23T12:39:41.660Z,24.39
2023-04-23T12:40:41.640Z,24.36
2023-04-23T12:41:41.400Z,24.45
2023-04-23T12:42:41.402Z,24.42
2023-04-23T12:43:41.436Z,24.46
2023-04-23T12:44:41.461Z,24.49
2023-04-23T12:45:41.498Z,24.49
2023-04-23T12:46:41.534Z,24.51
2023-04-23T12:47:41.893Z,24.49
2023-04-23T12:48:41.595Z,24.49
2023-04-23T12:49:41.923Z,24.52
2023-04-23T12:50:41.647Z,24.52
2023-04-23T12:51:41.691Z,24.48
2023-04-23T12:52:41.710Z,24.52
2023-04-23T12:53:41.760Z,24.49
2023-04-23T12:54:42.075Z,24.48
2023-04-23T12:55:41.797Z,24.49
2023-04-23T12:56:41.841Z,24.55
2023-04-23T12:57:41.882Z,24.60
2023-04-23T12:58:41.898Z,24.59
2023-04-23T12:59:42.284Z,24.60
2023-04-23T13:00:41.986Z,24.63
2023-04-23T13:01:42.319Z,24.56
2023-04-23T13:02:42.177Z,24.59
2023-04-23T13:03:42.173Z,24.63
2023-04-23T13:05:42.102Z,24.64
2023-04-23T13:06:42.141Z,24.64
2023-04-23T13:07:42.164Z,24.60
2023-04-23T13:08:42.517Z,24.63
2023-04-23T13:09:42.551Z,24.63
2023-04-23T13:10:42.263Z,24.59
2023-04-23T13:11:42.290Z,24.60
2023-04-23T13:12:42.319Z,24.75
2023-04-23T13:13:42.369Z,24.71
2023-04-23T13:14:42.377Z,24.75
2023-04-23T13:15:42.662Z,24.71
2023-04-23T13:16:42.503Z,24.75
2023-04-23T13:17:42.549Z,24.75
2023-04-23T13:18:42.508Z,24.83
2023-04-23T13:19:42.809Z,24.74
2023-04-23T13:20:42.576Z,24.80
2023-04-23T13:21:42.599Z,24.77
2023-04-23T13:23:42.667Z,24.90
2023-04-23T13:24:42.704Z,24.77
2023-04-23T13:25:42.722Z,24.86
2023-04-23T13:26:42.831Z,24.87
2023-04-23T13:27:42.779Z,24.75
2023-04-23T13:28:42.879Z,24.77
2023-04-23T13:29:43.164Z,24.80
2023-04-23T13:30:42.871Z,24.87
2023-04-23T13:31:42.935Z,24.89
2023-04-23T13:32:42.957Z,24.82
2023-04-23T13:33:42.959Z,24.79
2023-04-23T13:34:43.240Z,24.87
2023-04-23T13:35:43.028Z,24.89
2023-04-23T13:36:43.060Z,24.97
2023-04-23T13:37:43.083Z,24.87
2023-04-23T13:38:43.122Z,24.89
2023-04-23T13:39:43.607Z,24.90
2023-04-23T13:40:43.211Z,24.90
2023-04-23T13:41:43.215Z,24.90
2023-04-23T13:42:43.248Z,24.87
2023-04-23T13:43:43.266Z,24.97
2023-04-23T13:44:43.309Z,24.94
2023-04-23T13:45:43.386Z,24.93
2023-04-23T13:46:43.660Z,24.94
2023-04-23T13:47:43.422Z,25.02